Chandler, AZ

11:31 PM MST on October 24, 2014 (GMT -0700)
Falcon Field | Change Station
CLOSE
Current Station
Airport
Location: Mesa,
Elevation: 1391 ft
Nearby Weather Stations

Elev 1391 ft 33.46 °N, 111.73 °W | Updated 3 hours ago

Clear
Clear
82 °F
Feels Like 82 °F
N
5
Wind Variable Wind from North

Today
High -- | Low -- °F
--% Chance of Precip.
Yesterday
High -- | Low -- °F
Precip. -- in
6:39 AM 5:43 PM
New Moon, 2% visible
Pressure 29.97 in
Visibility 40.0 miles
Clouds Clear
Dew Point 46 °F
Humidity 28%
Rainfall 0.00 in
Snow Depth Not available.
UV 0 out of 12
Pollen 5.40 out of 12
PM2.5 Moderate
Flu Activity No Activity
METAR KFFZ 250247Z 36004KT 40SM SKC 28/08 A2997

More Conditions Fewer Conditions

Pressure 29.97 in
Visibility 40.0 miles
Clouds Clear
Dew Point 46 °F
Humidity 28%
Rainfall 0.00 in
Snow Depth Not available.
UV 0 out of 12
Pollen 5.40 out of 12
PM2.5 Moderate
Flu Activity No Activity
METAR KFFZ 250247Z 36004KT 40SM SKC 28/08 A2997

More Conditions Fewer Conditions

10-Day Weather Forecast

Almanac

Astronomy

Oct. 24, 2014 Rise Set
Actual Time 6:39 AM MST 5:43 PM MST
Civil Twilight 6:13 AM MST 6:08 PM MST
Nautical Twilight 5:44 AM MST 6:37 PM MST
Astronomical Twilight 5:16 AM MST 7:06 PM MST
Moon 7:20 AM MST (10/24) 6:28 PM MST (10/24)
Length of Visible Light 11h 54m
Length of Day
11h 04m
Tomorrow will be 1m 54s shorter.
New Moon, 2% of the Moon is Illuminated
Oct 25
New Moon
Oct 30
First Quarter
Nov 6
Full
Nov 14
Last Quarter
Nov 22
New

Community

WunderPhotos

Upload Photos

1,764,785 photos uploaded!

Nearby

Air Quality

  Air Quality AQ Index Pollutant
Yesterday Good
PM2.5
Yesterday Good
OZONE
Current Moderate
PM2.5
Friday Good
OZONE
Friday Good
PM10
Friday Good
CO
Saturday Good
PM2.5
Saturday Good
OZONE
Saturday Good
CO
Sunday Good
PM2.5
Sunday Good
OZONE
Sunday Good
CO

Snow Depth

Station Depth Elevation
Workman Creek 0 in 6900 ft
Baker Butte 0 in 7300 ft
Promontory 0 in 7930 ft
Heber 0 in 7640 ft
Happy Jack 0 in 7630 ft

Earthquake Activity

City Distance Mag. Time & Date
No recent earthquake activity has been reported nearby.
Minimum magnitude displayed is 2.5.

Coastal Water Temperatures

Place Temperature
No Stations Reporting

Nearby Weather Stations